sensor_id;sensor_type;location;lat;lon;timestamp;P1;durP1;ratioP1;P2;durP2;ratioP2
36385;SDS011;24125;47.482;8.770;2023-02-27T00:00:15;2.17;;;1.55;;
36385;SDS011;24125;47.482;8.770;2023-02-27T00:02:50;3.28;;;1.90;;
36385;SDS011;24125;47.482;8.770;2023-02-27T00:05:23;3.30;;;2.00;;
36385;SDS011;24125;47.482;8.770;2023-02-27T00:07:57;3.42;;;1.83;;
36385;SDS011;24125;47.482;8.770;2023-02-27T00:10:30;1.40;;;1.30;;
36385;SDS011;24125;47.482;8.770;2023-02-27T00:13:04;2.28;;;1.80;;
36385;SDS011;24125;47.482;8.770;2023-02-27T00:15:38;2.05;;;1.48;;
36385;SDS011;24125;47.482;8.770;2023-02-27T00:18:11;2.60;;;2.00;;
36385;SDS011;24125;47.482;8.770;2023-02-27T00:20:44;2.70;;;1.90;;
36385;SDS011;24125;47.482;8.770;2023-02-27T00:23:17;2.65;;;1.73;;
36385;SDS011;24125;47.482;8.770;2023-02-27T00:25:50;1.90;;;1.75;;
36385;SDS011;24125;47.482;8.770;2023-02-27T00:28:26;2.05;;;1.60;;
36385;SDS011;24125;47.482;8.770;2023-02-27T00:30:59;1.90;;;1.60;;
36385;SDS011;24125;47.482;8.770;2023-02-27T00:33:35;2.97;;;2.00;;
36385;SDS011;24125;47.482;8.770;2023-02-27T00:36:08;1.73;;;1.45;;
36385;SDS011;24125;47.482;8.770;2023-02-27T00:38:41;3.80;;;1.70;;
36385;SDS011;24125;47.482;8.770;2023-02-27T00:41:14;2.15;;;1.95;;
36385;SDS011;24125;47.482;8.770;2023-02-27T00:43:48;2.28;;;1.75;;
36385;SDS011;24125;47.482;8.770;2023-02-27T00:46:21;2.33;;;1.50;;
36385;SDS011;24125;47.482;8.770;2023-02-27T00:48:54;3.50;;;1.50;;
36385;SDS011;24125;47.482;8.770;2023-02-27T00:51:27;3.55;;;1.98;;
36385;SDS011;24125;47.482;8.770;2023-02-27T00:54:00;1.80;;;1.50;;
36385;SDS011;24125;47.482;8.770;2023-02-27T00:56:34;2.10;;;1.50;;
36385;SDS011;24125;47.482;8.770;2023-02-27T00:59:08;2.55;;;1.75;;
36385;SDS011;24125;47.482;8.770;2023-02-27T01:01:41;2.80;;;1.70;;
36385;SDS011;24125;47.482;8.770;2023-02-27T01:04:14;2.85;;;1.90;;
36385;SDS011;24125;47.482;8.770;2023-02-27T01:06:47;2.08;;;1.60;;
36385;SDS011;24125;47.482;8.770;2023-02-27T01:09:20;2.10;;;1.60;;
36385;SDS011;24125;47.482;8.770;2023-02-27T01:11:55;2.85;;;1.60;;
36385;SDS011;24125;47.482;8.770;2023-02-27T01:14:29;3.72;;;1.88;;
36385;SDS011;24125;47.482;8.770;2023-02-27T01:17:02;1.80;;;1.40;;
36385;SDS011;24125;47.482;8.770;2023-02-27T01:19:35;2.60;;;1.67;;
36385;SDS011;24125;47.482;8.770;2023-02-27T01:22:08;2.35;;;1.85;;
36385;SDS011;24125;47.482;8.770;2023-02-27T01:24:41;2.40;;;1.77;;
36385;SDS011;24125;47.482;8.770;2023-02-27T01:27:14;2.35;;;1.90;;
36385;SDS011;24125;47.482;8.770;2023-02-27T01:29:49;1.75;;;1.52;;
36385;SDS011;24125;47.482;8.770;2023-02-27T01:32:21;2.58;;;1.83;;
36385;SDS011;24125;47.482;8.770;2023-02-27T01:34:54;2.55;;;1.92;;
36385;SDS011;24125;47.482;8.770;2023-02-27T01:37:27;3.33;;;1.70;;
36385;SDS011;24125;47.482;8.770;2023-02-27T01:40:00;2.78;;;1.88;;
36385;SDS011;24125;47.482;8.770;2023-02-27T01:42:34;1.70;;;1.50;;
36385;SDS011;24125;47.482;8.770;2023-02-27T01:45:15;2.17;;;1.70;;
36385;SDS011;24125;47.482;8.770;2023-02-27T01:48:03;3.33;;;1.67;;
36385;SDS011;24125;47.482;8.770;2023-02-27T01:50:42;2.55;;;1.67;;
36385;SDS011;24125;47.482;8.770;2023-02-27T01:53:22;2.55;;;1.88;;
36385;SDS011;24125;47.482;8.770;2023-02-27T01:56:08;2.63;;;1.98;;
36385;SDS011;24125;47.482;8.770;2023-02-27T01:58:45;2.42;;;2.10;;
36385;SDS011;24125;47.482;8.770;2023-02-27T02:01:23;2.15;;;1.95;;
36385;SDS011;24125;47.482;8.770;2023-02-27T02:03:59;2.42;;;1.63;;
36385;SDS011;24125;47.482;8.770;2023-02-27T02:06:39;2.90;;;2.00;;
36385;SDS011;24125;47.482;8.770;2023-02-27T02:09:16;2.55;;;1.63;;
36385;SDS011;24125;47.482;8.770;2023-02-27T02:11:51;2.85;;;1.88;;
36385;SDS011;24125;47.482;8.770;2023-02-27T02:14:25;3.50;;;2.08;;
36385;SDS011;24125;47.482;8.770;2023-02-27T02:17:04;3.13;;;1.65;;
36385;SDS011;24125;47.482;8.770;2023-02-27T02:22:58;2.35;;;1.90;;
36385;SDS011;24125;47.482;8.770;2023-02-27T02:26:05;2.58;;;1.70;;
36385;SDS011;24125;47.482;8.770;2023-02-27T02:29:15;2.20;;;1.73;;
36385;SDS011;24125;47.482;8.770;2023-02-27T02:35:18;2.58;;;2.13;;
36385;SDS011;24125;47.482;8.770;2023-02-27T02:41:33;3.53;;;1.90;;
36385;SDS011;24125;47.482;8.770;2023-02-27T02:44:19;2.22;;;1.77;;
36385;SDS011;24125;47.482;8.770;2023-02-27T02:47:00;3.17;;;1.90;;
36385;SDS011;24125;47.482;8.770;2023-02-27T02:49:39;3.42;;;2.20;;
36385;SDS011;24125;47.482;8.770;2023-02-27T02:52:19;1.95;;;1.65;;
36385;SDS011;24125;47.482;8.770;2023-02-27T02:55:00;2.83;;;1.70;;
36385;SDS011;24125;47.482;8.770;2023-02-27T02:57:41;2.53;;;1.80;;
36385;SDS011;24125;47.482;8.770;2023-02-27T03:00:18;2.92;;;1.90;;
36385;SDS011;24125;47.482;8.770;2023-02-27T03:02:54;3.97;;;1.67;;
36385;SDS011;24125;47.482;8.770;2023-02-27T03:05:32;5.30;;;1.90;;
36385;SDS011;24125;47.482;8.770;2023-02-27T03:08:10;2.72;;;1.80;;
36385;SDS011;24125;47.482;8.770;2023-02-27T03:10:48;2.22;;;1.80;;
36385;SDS011;24125;47.482;8.770;2023-02-27T03:13:28;3.80;;;1.88;;
36385;SDS011;24125;47.482;8.770;2023-02-27T03:16:06;3.60;;;1.67;;
36385;SDS011;24125;47.482;8.770;2023-02-27T03:18:45;3.30;;;2.17;;
36385;SDS011;24125;47.482;8.770;2023-02-27T03:21:25;2.22;;;1.77;;
36385;SDS011;24125;47.482;8.770;2023-02-27T03:24:04;2.20;;;1.70;;
36385;SDS011;24125;47.482;8.770;2023-02-27T03:26:41;2.35;;;1.92;;
36385;SDS011;24125;47.482;8.770;2023-02-27T03:29:19;2.45;;;2.03;;
36385;SDS011;24125;47.482;8.770;2023-02-27T03:31:59;3.42;;;1.77;;
36385;SDS011;24125;47.482;8.770;2023-02-27T03:34:36;2.13;;;1.60;;
36385;SDS011;24125;47.482;8.770;2023-02-27T03:37:15;1.80;;;1.42;;
36385;SDS011;24125;47.482;8.770;2023-02-27T03:39:59;2.25;;;1.58;;
36385;SDS011;24125;47.482;8.770;2023-02-27T03:42:39;2.10;;;1.52;;
36385;SDS011;24125;47.482;8.770;2023-02-27T03:45:22;2.95;;;1.88;;
36385;SDS011;24125;47.482;8.770;2023-02-27T03:47:59;2.15;;;1.90;;
36385;SDS011;24125;47.482;8.770;2023-02-27T03:50:33;1.92;;;1.50;;
36385;SDS011;24125;47.482;8.770;2023-02-27T03:53:10;2.58;;;1.70;;
36385;SDS011;24125;47.482;8.770;2023-02-27T03:55:48;2.67;;;1.88;;
36385;SDS011;24125;47.482;8.770;2023-02-27T03:58:23;3.15;;;1.98;;
36385;SDS011;24125;47.482;8.770;2023-02-27T04:00:58;3.20;;;1.95;;
36385;SDS011;24125;47.482;8.770;2023-02-27T04:03:31;1.88;;;1.58;;
36385;SDS011;24125;47.482;8.770;2023-02-27T04:06:10;3.95;;;1.73;;
36385;SDS011;24125;47.482;8.770;2023-02-27T04:09:02;4.75;;;1.45;;
36385;SDS011;24125;47.482;8.770;2023-02-27T04:11:48;2.65;;;1.83;;
36385;SDS011;24125;47.482;8.770;2023-02-27T04:17:24;3.13;;;1.67;;
36385;SDS011;24125;47.482;8.770;2023-02-27T04:23:12;2.75;;;1.60;;
36385;SDS011;24125;47.482;8.770;2023-02-27T04:25:50;3.40;;;1.65;;
36385;SDS011;24125;47.482;8.770;2023-02-27T04:28:33;3.15;;;1.67;;
36385;SDS011;24125;47.482;8.770;2023-02-27T04:31:13;2.33;;;1.73;;
36385;SDS011;24125;47.482;8.770;2023-02-27T04:33:55;2.95;;;2.03;;
36385;SDS011;24125;47.482;8.770;2023-02-27T04:36:33;2.65;;;2.20;;
36385;SDS011;24125;47.482;8.770;2023-02-27T04:39:14;3.15;;;1.95;;
36385;SDS011;24125;47.482;8.770;2023-02-27T04:41:53;2.75;;;1.60;;
36385;SDS011;24125;47.482;8.770;2023-02-27T04:44:30;5.07;;;1.90;;
36385;SDS011;24125;47.482;8.770;2023-02-27T04:47:07;3.47;;;2.20;;
36385;SDS011;24125;47.482;8.770;2023-02-27T04:49:44;3.53;;;1.90;;
36385;SDS011;24125;47.482;8.770;2023-02-27T04:52:21;2.20;;;1.85;;
36385;SDS011;24125;47.482;8.770;2023-02-27T04:55:01;3.35;;;1.90;;
36385;SDS011;24125;47.482;8.770;2023-02-27T04:57:41;2.25;;;1.90;;
36385;SDS011;24125;47.482;8.770;2023-02-27T05:00:20;2.85;;;2.00;;
36385;SDS011;24125;47.482;8.770;2023-02-27T05:02:57;2.63;;;1.85;;
36385;SDS011;24125;47.482;8.770;2023-02-27T05:05:34;3.00;;;1.45;;
36385;SDS011;24125;47.482;8.770;2023-02-27T05:08:13;2.90;;;2.00;;
36385;SDS011;24125;47.482;8.770;2023-02-27T05:10:53;2.10;;;1.80;;
36385;SDS011;24125;47.482;8.770;2023-02-27T05:13:32;3.38;;;1.88;;
36385;SDS011;24125;47.482;8.770;2023-02-27T05:16:13;4.55;;;1.95;;
36385;SDS011;24125;47.482;8.770;2023-02-27T05:18:51;3.03;;;1.98;;
36385;SDS011;24125;47.482;8.770;2023-02-27T05:21:28;3.08;;;2.00;;
36385;SDS011;24125;47.482;8.770;2023-02-27T05:24:07;2.80;;;2.22;;
36385;SDS011;24125;47.482;8.770;2023-02-27T05:26:52;3.20;;;1.92;;
36385;SDS011;24125;47.482;8.770;2023-02-27T05:29:38;2.60;;;1.90;;
36385;SDS011;24125;47.482;8.770;2023-02-27T05:32:19;1.63;;;1.05;;
36385;SDS011;24125;47.482;8.770;2023-02-27T05:35:04;2.55;;;1.80;;
36385;SDS011;24125;47.482;8.770;2023-02-27T05:37:44;3.60;;;1.95;;
36385;SDS011;24125;47.482;8.770;2023-02-27T05:40:22;3.15;;;2.10;;
36385;SDS011;24125;47.482;8.770;2023-02-27T05:43:03;6.47;;;2.00;;
36385;SDS011;24125;47.482;8.770;2023-02-27T05:45:42;3.30;;;1.67;;
36385;SDS011;24125;47.482;8.770;2023-02-27T05:48:19;2.13;;;1.80;;
36385;SDS011;24125;47.482;8.770;2023-02-27T05:50:57;2.88;;;2.17;;
36385;SDS011;24125;47.482;8.770;2023-02-27T05:53:33;2.83;;;1.88;;
36385;SDS011;24125;47.482;8.770;2023-02-27T05:56:11;3.50;;;2.10;;
36385;SDS011;24125;47.482;8.770;2023-02-27T05:58:49;3.45;;;1.98;;
36385;SDS011;24125;47.482;8.770;2023-02-27T06:01:25;3.15;;;2.40;;
36385;SDS011;24125;47.482;8.770;2023-02-27T06:03:58;3.80;;;2.20;;
36385;SDS011;24125;47.482;8.770;2023-02-27T06:06:31;4.35;;;2.05;;
36385;SDS011;24125;47.482;8.770;2023-02-27T06:09:08;2.25;;;1.80;;
36385;SDS011;24125;47.482;8.770;2023-02-27T06:11:41;2.33;;;2.05;;
36385;SDS011;24125;47.482;8.770;2023-02-27T06:14:14;2.58;;;1.80;;
36385;SDS011;24125;47.482;8.770;2023-02-27T06:16:47;4.60;;;2.10;;
36385;SDS011;24125;47.482;8.770;2023-02-27T06:19:20;4.53;;;2.10;;
36385;SDS011;24125;47.482;8.770;2023-02-27T06:21:53;3.65;;;2.10;;
36385;SDS011;24125;47.482;8.770;2023-02-27T06:24:27;2.30;;;1.80;;
36385;SDS011;24125;47.482;8.770;2023-02-27T06:27:00;2.97;;;2.03;;
36385;SDS011;24125;47.482;8.770;2023-02-27T06:29:33;3.17;;;2.00;;
36385;SDS011;24125;47.482;8.770;2023-02-27T06:32:06;2.63;;;1.90;;
36385;SDS011;24125;47.482;8.770;2023-02-27T06:34:39;2.92;;;1.90;;
36385;SDS011;24125;47.482;8.770;2023-02-27T06:37:12;2.83;;;1.83;;
36385;SDS011;24125;47.482;8.770;2023-02-27T06:39:46;3.92;;;2.30;;
36385;SDS011;24125;47.482;8.770;2023-02-27T06:42:19;2.78;;;1.70;;
36385;SDS011;24125;47.482;8.770;2023-02-27T06:44:52;3.35;;;2.08;;
36385;SDS011;24125;47.482;8.770;2023-02-27T06:47:26;2.63;;;1.85;;
36385;SDS011;24125;47.482;8.770;2023-02-27T06:49:59;2.60;;;1.92;;
36385;SDS011;24125;47.482;8.770;2023-02-27T06:52:32;2.83;;;1.77;;
36385;SDS011;24125;47.482;8.770;2023-02-27T06:55:08;2.65;;;1.83;;
36385;SDS011;24125;47.482;8.770;2023-02-27T06:57:42;2.97;;;1.95;;
36385;SDS011;24125;47.482;8.770;2023-02-27T07:00:15;3.63;;;2.13;;
36385;SDS011;24125;47.482;8.770;2023-02-27T07:02:49;2.90;;;2.00;;
36385;SDS011;24125;47.482;8.770;2023-02-27T07:05:22;2.47;;;2.20;;
36385;SDS011;24125;47.482;8.770;2023-02-27T07:07:55;3.03;;;2.20;;
36385;SDS011;24125;47.482;8.770;2023-02-27T07:10:30;3.10;;;2.00;;
36385;SDS011;24125;47.482;8.770;2023-02-27T07:13:03;3.10;;;1.90;;
36385;SDS011;24125;47.482;8.770;2023-02-27T07:15:36;4.00;;;2.38;;
36385;SDS011;24125;47.482;8.770;2023-02-27T07:18:09;3.53;;;2.45;;
36385;SDS011;24125;47.482;8.770;2023-02-27T07:20:42;3.78;;;2.22;;
36385;SDS011;24125;47.482;8.770;2023-02-27T07:23:15;2.97;;;2.30;;
36385;SDS011;24125;47.482;8.770;2023-02-27T07:25:49;3.55;;;1.92;;
36385;SDS011;24125;47.482;8.770;2023-02-27T07:28:22;2.38;;;2.10;;
36385;SDS011;24125;47.482;8.770;2023-02-27T07:30:56;3.22;;;2.30;;
36385;SDS011;24125;47.482;8.770;2023-02-27T07:33:29;4.32;;;2.10;;
36385;SDS011;24125;47.482;8.770;2023-02-27T07:36:03;3.40;;;2.08;;
36385;SDS011;24125;47.482;8.770;2023-02-27T07:38:36;3.63;;;2.03;;
36385;SDS011;24125;47.482;8.770;2023-02-27T07:41:11;2.80;;;2.13;;
36385;SDS011;24125;47.482;8.770;2023-02-27T07:44:00;4.03;;;2.45;;
36385;SDS011;24125;47.482;8.770;2023-02-27T07:46:33;2.60;;;2.30;;
36385;SDS011;24125;47.482;8.770;2023-02-27T07:49:06;3.05;;;2.40;;
36385;SDS011;24125;47.482;8.770;2023-02-27T07:51:40;2.53;;;2.20;;
36385;SDS011;24125;47.482;8.770;2023-02-27T07:54:13;2.85;;;2.17;;
36385;SDS011;24125;47.482;8.770;2023-02-27T07:56:47;2.45;;;1.98;;
36385;SDS011;24125;47.482;8.770;2023-02-27T07:59:20;2.67;;;1.95;;
36385;SDS011;24125;47.482;8.770;2023-02-27T08:01:53;3.30;;;2.50;;
36385;SDS011;24125;47.482;8.770;2023-02-27T08:04:26;2.85;;;2.10;;
36385;SDS011;24125;47.482;8.770;2023-02-27T08:07:02;3.75;;;2.00;;
36385;SDS011;24125;47.482;8.770;2023-02-27T08:09:35;2.97;;;1.90;;
36385;SDS011;24125;47.482;8.770;2023-02-27T08:12:10;2.58;;;1.90;;
36385;SDS011;24125;47.482;8.770;2023-02-27T08:14:42;3.03;;;2.30;;
36385;SDS011;24125;47.482;8.770;2023-02-27T08:17:15;3.22;;;2.35;;
36385;SDS011;24125;47.482;8.770;2023-02-27T08:19:49;3.78;;;2.60;;
36385;SDS011;24125;47.482;8.770;2023-02-27T08:22:22;2.67;;;2.20;;
36385;SDS011;24125;47.482;8.770;2023-02-27T08:24:55;3.25;;;2.20;;
36385;SDS011;24125;47.482;8.770;2023-02-27T08:27:29;2.85;;;2.15;;
36385;SDS011;24125;47.482;8.770;2023-02-27T08:30:03;3.67;;;2.33;;
36385;SDS011;24125;47.482;8.770;2023-02-27T08:32:37;4.28;;;2.20;;
36385;SDS011;24125;47.482;8.770;2023-02-27T08:35:11;2.85;;;2.28;;
36385;SDS011;24125;47.482;8.770;2023-02-27T08:37:44;7.15;;;2.55;;
36385;SDS011;24125;47.482;8.770;2023-02-27T08:40:17;4.18;;;2.33;;
36385;SDS011;24125;47.482;8.770;2023-02-27T08:42:52;3.13;;;2.03;;
36385;SDS011;24125;47.482;8.770;2023-02-27T08:45:25;3.38;;;2.45;;
36385;SDS011;24125;47.482;8.770;2023-02-27T08:47:59;2.05;;;1.85;;
36385;SDS011;24125;47.482;8.770;2023-02-27T08:50:31;4.15;;;2.40;;
36385;SDS011;24125;47.482;8.770;2023-02-27T08:53:04;3.50;;;2.05;;
36385;SDS011;24125;47.482;8.770;2023-02-27T08:55:37;2.90;;;2.00;;
36385;SDS011;24125;47.482;8.770;2023-02-27T08:58:12;3.08;;;1.92;;
36385;SDS011;24125;47.482;8.770;2023-02-27T09:00:47;3.25;;;2.20;;
36385;SDS011;24125;47.482;8.770;2023-02-27T09:03:20;3.45;;;2.50;;
36385;SDS011;24125;47.482;8.770;2023-02-27T09:05:57;3.33;;;2.30;;
36385;SDS011;24125;47.482;8.770;2023-02-27T09:08:30;3.00;;;2.08;;
36385;SDS011;24125;47.482;8.770;2023-02-27T09:11:03;3.92;;;2.20;;
36385;SDS011;24125;47.482;8.770;2023-02-27T09:13:39;5.65;;;2.30;;
36385;SDS011;24125;47.482;8.770;2023-02-27T09:16:12;3.00;;;1.88;;
36385;SDS011;24125;47.482;8.770;2023-02-27T09:18:45;3.28;;;2.22;;
36385;SDS011;24125;47.482;8.770;2023-02-27T09:21:18;3.17;;;2.05;;
36385;SDS011;24125;47.482;8.770;2023-02-27T09:23:52;3.50;;;2.40;;
36385;SDS011;24125;47.482;8.770;2023-02-27T09:26:25;6.18;;;2.10;;
36385;SDS011;24125;47.482;8.770;2023-02-27T09:29:16;3.45;;;2.30;;
36385;SDS011;24125;47.482;8.770;2023-02-27T09:31:49;5.40;;;2.90;;
36385;SDS011;24125;47.482;8.770;2023-02-27T09:34:23;3.60;;;2.40;;
36385;SDS011;24125;47.482;8.770;2023-02-27T09:36:57;3.67;;;2.22;;
36385;SDS011;24125;47.482;8.770;2023-02-27T09:39:31;4.50;;;2.50;;
36385;SDS011;24125;47.482;8.770;2023-02-27T09:42:04;4.18;;;2.20;;
36385;SDS011;24125;47.482;8.770;2023-02-27T09:44:49;4.45;;;2.33;;
36385;SDS011;24125;47.482;8.770;2023-02-27T09:47:26;3.80;;;2.38;;
36385;SDS011;24125;47.482;8.770;2023-02-27T09:50:17;2.60;;;2.25;;
36385;SDS011;24125;47.482;8.770;2023-02-27T09:53:00;4.05;;;2.42;;
36385;SDS011;24125;47.482;8.770;2023-02-27T09:55:33;2.78;;;1.95;;
36385;SDS011;24125;47.482;8.770;2023-02-27T09:58:13;3.65;;;2.47;;
36385;SDS011;24125;47.482;8.770;2023-02-27T10:01:00;3.42;;;2.25;;
36385;SDS011;24125;47.482;8.770;2023-02-27T10:03:45;3.63;;;2.25;;
36385;SDS011;24125;47.482;8.770;2023-02-27T10:06:31;2.95;;;2.20;;
36385;SDS011;24125;47.482;8.770;2023-02-27T10:09:17;3.83;;;2.67;;
36385;SDS011;24125;47.482;8.770;2023-02-27T10:12:03;3.38;;;2.30;;
36385;SDS011;24125;47.482;8.770;2023-02-27T10:14:44;4.35;;;2.15;;
36385;SDS011;24125;47.482;8.770;2023-02-27T10:17:23;4.07;;;2.35;;
36385;SDS011;24125;47.482;8.770;2023-02-27T10:20:01;4.95;;;2.58;;
36385;SDS011;24125;47.482;8.770;2023-02-27T10:22:40;3.97;;;2.58;;
36385;SDS011;24125;47.482;8.770;2023-02-27T10:25:17;4.32;;;2.50;;
36385;SDS011;24125;47.482;8.770;2023-02-27T10:28:08;4.20;;;2.70;;
36385;SDS011;24125;47.482;8.770;2023-02-27T10:30:45;3.17;;;2.50;;
36385;SDS011;24125;47.482;8.770;2023-02-27T10:33:23;3.92;;;3.03;;
36385;SDS011;24125;47.482;8.770;2023-02-27T10:35:58;5.63;;;3.30;;
36385;SDS011;24125;47.482;8.770;2023-02-27T10:38:34;3.88;;;2.47;;
36385;SDS011;24125;47.482;8.770;2023-02-27T10:41:11;5.75;;;2.80;;
36385;SDS011;24125;47.482;8.770;2023-02-27T10:43:45;4.15;;;2.63;;
36385;SDS011;24125;47.482;8.770;2023-02-27T10:46:20;3.65;;;2.40;;
36385;SDS011;24125;47.482;8.770;2023-02-27T10:49:00;3.65;;;2.65;;
36385;SDS011;24125;47.482;8.770;2023-02-27T10:51:35;3.90;;;2.75;;
36385;SDS011;24125;47.482;8.770;2023-02-27T10:54:13;4.07;;;2.80;;
36385;SDS011;24125;47.482;8.770;2023-02-27T10:56:51;3.60;;;2.67;;
36385;SDS011;24125;47.482;8.770;2023-02-27T10:59:27;6.70;;;2.58;;
36385;SDS011;24125;47.482;8.770;2023-02-27T11:02:03;4.07;;;2.78;;
36385;SDS011;24125;47.482;8.770;2023-02-27T11:04:53;5.50;;;2.80;;
36385;SDS011;24125;47.482;8.770;2023-02-27T11:07:29;4.38;;;2.58;;
36385;SDS011;24125;47.482;8.770;2023-02-27T11:10:14;4.40;;;2.60;;
36385;SDS011;24125;47.482;8.770;2023-02-27T11:13:01;4.13;;;2.42;;
36385;SDS011;24125;47.482;8.770;2023-02-27T11:15:36;3.55;;;2.13;;
36385;SDS011;24125;47.482;8.770;2023-02-27T11:18:18;4.70;;;2.40;;
36385;SDS011;24125;47.482;8.770;2023-02-27T11:20:54;4.22;;;2.35;;
36385;SDS011;24125;47.482;8.770;2023-02-27T11:23:48;2.58;;;1.88;;
36385;SDS011;24125;47.482;8.770;2023-02-27T11:26:30;2.95;;;2.30;;
36385;SDS011;24125;47.482;8.770;2023-02-27T11:29:06;3.70;;;2.17;;
36385;SDS011;24125;47.482;8.770;2023-02-27T11:31:50;4.80;;;2.70;;
36385;SDS011;24125;47.482;8.770;2023-02-27T11:34:29;3.55;;;2.50;;
36385;SDS011;24125;47.482;8.770;2023-02-27T11:37:06;4.13;;;2.65;;
36385;SDS011;24125;47.482;8.770;2023-02-27T11:39:51;4.13;;;2.55;;
36385;SDS011;24125;47.482;8.770;2023-02-27T11:42:28;4.05;;;2.30;;
36385;SDS011;24125;47.482;8.770;2023-02-27T11:45:04;3.53;;;2.08;;
36385;SDS011;24125;47.482;8.770;2023-02-27T11:47:39;4.20;;;2.35;;
36385;SDS011;24125;47.482;8.770;2023-02-27T11:56:31;2.72;;;2.25;;
36385;SDS011;24125;47.482;8.770;2023-02-27T11:59:12;5.88;;;2.50;;
36385;SDS011;24125;47.482;8.770;2023-02-27T12:01:57;3.65;;;2.50;;
36385;SDS011;24125;47.482;8.770;2023-02-27T12:04:39;3.90;;;2.20;;
36385;SDS011;24125;47.482;8.770;2023-02-27T12:07:18;3.33;;;2.17;;
36385;SDS011;24125;47.482;8.770;2023-02-27T12:09:58;3.08;;;2.10;;
36385;SDS011;24125;47.482;8.770;2023-02-27T12:12:40;3.05;;;2.17;;
36385;SDS011;24125;47.482;8.770;2023-02-27T12:15:23;3.78;;;2.15;;
36385;SDS011;24125;47.482;8.770;2023-02-27T12:18:07;2.90;;;2.15;;
36385;SDS011;24125;47.482;8.770;2023-02-27T12:20:49;3.47;;;2.28;;
36385;SDS011;24125;47.482;8.770;2023-02-27T12:23:27;2.97;;;2.10;;
36385;SDS011;24125;47.482;8.770;2023-02-27T12:26:06;4.22;;;2.65;;
36385;SDS011;24125;47.482;8.770;2023-02-27T12:28:50;2.65;;;1.88;;
36385;SDS011;24125;47.482;8.770;2023-02-27T12:34:25;4.70;;;3.03;;
36385;SDS011;24125;47.482;8.770;2023-02-27T12:37:08;6.50;;;2.63;;
36385;SDS011;24125;47.482;8.770;2023-02-27T12:39:43;3.95;;;2.53;;
36385;SDS011;24125;47.482;8.770;2023-02-27T12:48:36;4.85;;;2.05;;
36385;SDS011;24125;47.482;8.770;2023-02-27T12:51:25;3.28;;;2.47;;
36385;SDS011;24125;47.482;8.770;2023-02-27T12:54:09;4.15;;;2.67;;
36385;SDS011;24125;47.482;8.770;2023-02-27T12:56:54;4.85;;;3.17;;
36385;SDS011;24125;47.482;8.770;2023-02-27T12:59:39;4.65;;;2.80;;
36385;SDS011;24125;47.482;8.770;2023-02-27T13:02:36;3.95;;;2.50;;
36385;SDS011;24125;47.482;8.770;2023-02-27T13:05:38;4.78;;;2.92;;
36385;SDS011;24125;47.482;8.770;2023-02-27T13:08:25;4.82;;;2.50;;
36385;SDS011;24125;47.482;8.770;2023-02-27T13:11:12;5.13;;;3.03;;
36385;SDS011;24125;47.482;8.770;2023-02-27T13:13:55;4.90;;;3.00;;
36385;SDS011;24125;47.482;8.770;2023-02-27T13:16:32;5.85;;;2.95;;
36385;SDS011;24125;47.482;8.770;2023-02-27T13:19:11;4.55;;;3.25;;
36385;SDS011;24125;47.482;8.770;2023-02-27T13:21:48;6.10;;;3.60;;
36385;SDS011;24125;47.482;8.770;2023-02-27T13:24:25;4.15;;;3.10;;
36385;SDS011;24125;47.482;8.770;2023-02-27T13:27:01;4.00;;;2.88;;
36385;SDS011;24125;47.482;8.770;2023-02-27T13:29:40;6.18;;;3.17;;
36385;SDS011;24125;47.482;8.770;2023-02-27T13:32:20;5.07;;;3.47;;
36385;SDS011;24125;47.482;8.770;2023-02-27T13:35:24;5.10;;;3.22;;
36385;SDS011;24125;47.482;8.770;2023-02-27T13:40:54;5.57;;;3.33;;
36385;SDS011;24125;47.482;8.770;2023-02-27T13:43:28;4.90;;;3.30;;
36385;SDS011;24125;47.482;8.770;2023-02-27T13:46:22;5.55;;;3.33;;
36385;SDS011;24125;47.482;8.770;2023-02-27T13:49:00;4.35;;;3.08;;
36385;SDS011;24125;47.482;8.770;2023-02-27T13:52:01;6.10;;;3.35;;
36385;SDS011;24125;47.482;8.770;2023-02-27T13:54:38;5.22;;;3.60;;
36385;SDS011;24125;47.482;8.770;2023-02-27T13:57:19;4.88;;;3.22;;
36385;SDS011;24125;47.482;8.770;2023-02-27T14:00:00;5.45;;;3.72;;
36385;SDS011;24125;47.482;8.770;2023-02-27T14:02:43;6.32;;;4.35;;
36385;SDS011;24125;47.482;8.770;2023-02-27T14:05:31;5.25;;;3.53;;
36385;SDS011;24125;47.482;8.770;2023-02-27T14:08:12;7.43;;;3.72;;
36385;SDS011;24125;47.482;8.770;2023-02-27T14:10:52;6.80;;;3.65;;
36385;SDS011;24125;47.482;8.770;2023-02-27T14:19:46;4.93;;;3.10;;
36385;SDS011;24125;47.482;8.770;2023-02-27T14:22:30;4.28;;;2.80;;
36385;SDS011;24125;47.482;8.770;2023-02-27T14:25:25;4.68;;;3.00;;
36385;SDS011;24125;47.482;8.770;2023-02-27T14:28:04;4.65;;;3.30;;
36385;SDS011;24125;47.482;8.770;2023-02-27T14:30:51;4.70;;;3.38;;
36385;SDS011;24125;47.482;8.770;2023-02-27T14:33:28;7.00;;;3.50;;
36385;SDS011;24125;47.482;8.770;2023-02-27T14:36:14;4.70;;;3.47;;
36385;SDS011;24125;47.482;8.770;2023-02-27T14:38:52;5.22;;;3.08;;
36385;SDS011;24125;47.482;8.770;2023-02-27T14:41:32;9.43;;;3.22;;
36385;SDS011;24125;47.482;8.770;2023-02-27T14:44:17;5.43;;;3.50;;
36385;SDS011;24125;47.482;8.770;2023-02-27T14:46:51;4.95;;;3.40;;
36385;SDS011;24125;47.482;8.770;2023-02-27T14:49:27;5.18;;;3.55;;
36385;SDS011;24125;47.482;8.770;2023-02-27T14:52:12;5.72;;;3.83;;
36385;SDS011;24125;47.482;8.770;2023-02-27T14:54:50;4.90;;;3.25;;
36385;SDS011;24125;47.482;8.770;2023-02-27T14:57:26;4.68;;;3.60;;
36385;SDS011;24125;47.482;8.770;2023-02-27T14:59:59;4.93;;;3.45;;
36385;SDS011;24125;47.482;8.770;2023-02-27T15:02:33;6.60;;;3.30;;
36385;SDS011;24125;47.482;8.770;2023-02-27T15:05:12;6.43;;;4.10;;
36385;SDS011;24125;47.482;8.770;2023-02-27T15:07:47;6.50;;;3.85;;
36385;SDS011;24125;47.482;8.770;2023-02-27T15:10:22;5.38;;;3.25;;
36385;SDS011;24125;47.482;8.770;2023-02-27T15:13:02;5.47;;;3.20;;
36385;SDS011;24125;47.482;8.770;2023-02-27T15:15:35;4.53;;;3.42;;
36385;SDS011;24125;47.482;8.770;2023-02-27T15:18:10;5.03;;;3.15;;
36385;SDS011;24125;47.482;8.770;2023-02-27T15:20:45;4.93;;;3.95;;
36385;SDS011;24125;47.482;8.770;2023-02-27T15:23:20;7.65;;;3.60;;
36385;SDS011;24125;47.482;8.770;2023-02-27T15:25:57;3.80;;;3.15;;
36385;SDS011;24125;47.482;8.770;2023-02-27T15:28:34;10.13;;;4.72;;
36385;SDS011;24125;47.482;8.770;2023-02-27T15:31:11;5.00;;;3.10;;
36385;SDS011;24125;47.482;8.770;2023-02-27T15:33:50;5.68;;;3.65;;
36385;SDS011;24125;47.482;8.770;2023-02-27T15:36:25;6.57;;;3.22;;
36385;SDS011;24125;47.482;8.770;2023-02-27T15:39:07;4.88;;;3.22;;
36385;SDS011;24125;47.482;8.770;2023-02-27T15:41:48;4.65;;;3.45;;
36385;SDS011;24125;47.482;8.770;2023-02-27T15:44:25;5.15;;;3.20;;
36385;SDS011;24125;47.482;8.770;2023-02-27T15:47:02;6.50;;;3.33;;
36385;SDS011;24125;47.482;8.770;2023-02-27T15:49:37;6.07;;;3.45;;
36385;SDS011;24125;47.482;8.770;2023-02-27T15:52:12;4.18;;;3.10;;
36385;SDS011;24125;47.482;8.770;2023-02-27T15:54:50;4.35;;;2.85;;
36385;SDS011;24125;47.482;8.770;2023-02-27T15:57:24;6.18;;;3.03;;
36385;SDS011;24125;47.482;8.770;2023-02-27T15:59:59;6.38;;;3.47;;
36385;SDS011;24125;47.482;8.770;2023-02-27T16:02:36;4.82;;;3.08;;
36385;SDS011;24125;47.482;8.770;2023-02-27T16:05:14;4.93;;;3.78;;
36385;SDS011;24125;47.482;8.770;2023-02-27T16:07:49;4.70;;;3.10;;
36385;SDS011;24125;47.482;8.770;2023-02-27T16:10:23;3.50;;;2.88;;
36385;SDS011;24125;47.482;8.770;2023-02-27T16:12:59;5.80;;;2.95;;
36385;SDS011;24125;47.482;8.770;2023-02-27T16:16:00;4.18;;;3.03;;
36385;SDS011;24125;47.482;8.770;2023-02-27T16:18:35;4.32;;;2.70;;
36385;SDS011;24125;47.482;8.770;2023-02-27T16:21:16;4.72;;;2.80;;
36385;SDS011;24125;47.482;8.770;2023-02-27T16:23:50;4.03;;;2.85;;
36385;SDS011;24125;47.482;8.770;2023-02-27T16:26:26;5.65;;;2.95;;
36385;SDS011;24125;47.482;8.770;2023-02-27T16:29:02;5.68;;;3.30;;
36385;SDS011;24125;47.482;8.770;2023-02-27T16:31:38;6.07;;;2.72;;